sensor_id;sensor_type;location;lat;lon;timestamp;pressure;altitude;pressure_sealevel;temperature
18713;BMP280;9485;49.386;8.674;2023-11-19T00:01:44;100366.75;;;10.03
18713;BMP280;9485;49.386;8.674;2023-11-19T00:07:06;100363.41;;;10.04
18713;BMP280;9485;49.386;8.674;2023-11-19T00:12:29;100359.91;;;10.09
18713;BMP280;9485;49.386;8.674;2023-11-19T00:17:51;100372.81;;;10.16
18713;BMP280;9485;49.386;8.674;2023-11-19T00:23:12;100359.06;;;10.23
18713;BMP280;9485;49.386;8.674;2023-11-19T00:28:33;100360.59;;;10.24
18713;BMP280;9485;49.386;8.674;2023-11-19T00:33:55;100349.66;;;10.32
18713;BMP280;9485;49.386;8.674;2023-11-19T00:39:16;100336.03;;;10.30
18713;BMP280;9485;49.386;8.674;2023-11-19T00:44:40;100325.81;;;10.33
18713;BMP280;9485;49.386;8.674;2023-11-19T00:50:03;100316.09;;;10.39
18713;BMP280;9485;49.386;8.674;2023-11-19T00:55:24;100326.13;;;10.40
18713;BMP280;9485;49.386;8.674;2023-11-19T01:00:45;100321.81;;;10.45
18713;BMP280;9485;49.386;8.674;2023-11-19T01:06:07;100327.31;;;10.53
18713;BMP280;9485;49.386;8.674;2023-11-19T01:11:28;100330.91;;;10.54
18713;BMP280;9485;49.386;8.674;2023-11-19T01:16:49;100319.56;;;10.48
18713;BMP280;9485;49.386;8.674;2023-11-19T01:22:11;100320.44;;;10.60
18713;BMP280;9485;49.386;8.674;2023-11-19T01:27:32;100325.38;;;10.65
18713;BMP280;9485;49.386;8.674;2023-11-19T01:32:54;100319.44;;;10.63
18713;BMP280;9485;49.386;8.674;2023-11-19T01:38:16;100331.84;;;10.71
18713;BMP280;9485;49.386;8.674;2023-11-19T01:43:39;100320.31;;;10.74
18713;BMP280;9485;49.386;8.674;2023-11-19T01:49:02;100334.50;;;10.80
18713;BMP280;9485;49.386;8.674;2023-11-19T01:54:24;100337.09;;;10.83
18713;BMP280;9485;49.386;8.674;2023-11-19T01:59:44;100327.38;;;10.90
18713;BMP280;9485;49.386;8.674;2023-11-19T02:05:05;100295.50;;;10.84
18713;BMP280;9485;49.386;8.674;2023-11-19T02:10:27;100300.16;;;10.87
18713;BMP280;9485;49.386;8.674;2023-11-19T02:15:48;100270.34;;;10.86
18713;BMP280;9485;49.386;8.674;2023-11-19T02:21:09;100281.16;;;10.87
18713;BMP280;9485;49.386;8.674;2023-11-19T02:26:39;100269.63;;;10.91
18713;BMP280;9485;49.386;8.674;2023-11-19T02:32:05;100265.25;;;10.90
18713;BMP280;9485;49.386;8.674;2023-11-19T02:37:29;100252.44;;;10.94
18713;BMP280;9485;49.386;8.674;2023-11-19T02:42:50;100255.53;;;10.96
18713;BMP280;9485;49.386;8.674;2023-11-19T02:48:12;100254.56;;;11.05
18713;BMP280;9485;49.386;8.674;2023-11-19T02:53:33;100255.09;;;11.09
18713;BMP280;9485;49.386;8.674;2023-11-19T02:58:54;100256.69;;;11.15
18713;BMP280;9485;49.386;8.674;2023-11-19T03:04:16;100250.28;;;11.20
18713;BMP280;9485;49.386;8.674;2023-11-19T03:09:40;100234.66;;;11.24
18713;BMP280;9485;49.386;8.674;2023-11-19T03:15:01;100232.09;;;11.26
18713;BMP280;9485;49.386;8.674;2023-11-19T03:20:23;100216.44;;;11.31
18713;BMP280;9485;49.386;8.674;2023-11-19T03:25:46;100217.75;;;11.35
18713;BMP280;9485;49.386;8.674;2023-11-19T03:31:07;100212.38;;;11.43
18713;BMP280;9485;49.386;8.674;2023-11-19T03:36:33;100202.38;;;11.47
18713;BMP280;9485;49.386;8.674;2023-11-19T03:41:53;100200.91;;;11.52
18713;BMP280;9485;49.386;8.674;2023-11-19T03:47:14;100190.66;;;11.60
18713;BMP280;9485;49.386;8.674;2023-11-19T03:52:37;100191.16;;;11.64
18713;BMP280;9485;49.386;8.674;2023-11-19T03:57:57;100199.16;;;11.71
18713;BMP280;9485;49.386;8.674;2023-11-19T04:03:18;100196.34;;;11.76
18713;BMP280;9485;49.386;8.674;2023-11-19T04:08:40;100199.72;;;11.86
18713;BMP280;9485;49.386;8.674;2023-11-19T04:14:01;100191.25;;;11.97
18713;BMP280;9485;49.386;8.674;2023-11-19T04:19:22;100187.16;;;12.03
18713;BMP280;9485;49.386;8.674;2023-11-19T04:24:45;100192.06;;;12.08
18713;BMP280;9485;49.386;8.674;2023-11-19T04:30:07;100191.28;;;12.18
18713;BMP280;9485;49.386;8.674;2023-11-19T04:35:30;100201.84;;;12.23
18713;BMP280;9485;49.386;8.674;2023-11-19T04:40:52;100202.13;;;12.31
18713;BMP280;9485;49.386;8.674;2023-11-19T04:46:13;100193.38;;;12.34
18713;BMP280;9485;49.386;8.674;2023-11-19T04:51:38;100192.34;;;12.37
18713;BMP280;9485;49.386;8.674;2023-11-19T04:57:01;100181.28;;;12.39
18713;BMP280;9485;49.386;8.674;2023-11-19T05:02:22;100181.53;;;12.41
18713;BMP280;9485;49.386;8.674;2023-11-19T05:07:42;100183.59;;;12.46
18713;BMP280;9485;49.386;8.674;2023-11-19T05:13:04;100182.81;;;12.51
18713;BMP280;9485;49.386;8.674;2023-11-19T05:18:25;100183.34;;;12.55
18713;BMP280;9485;49.386;8.674;2023-11-19T05:23:45;100184.88;;;12.62
18713;BMP280;9485;49.386;8.674;2023-11-19T05:29:07;100184.13;;;12.67
18713;BMP280;9485;49.386;8.674;2023-11-19T05:34:28;100182.31;;;12.74
18713;BMP280;9485;49.386;8.674;2023-11-19T05:39:49;100184.09;;;12.77
18713;BMP280;9485;49.386;8.674;2023-11-19T05:45:13;100180.72;;;12.84
18713;BMP280;9485;49.386;8.674;2023-11-19T05:50:34;100185.13;;;12.85
18713;BMP280;9485;49.386;8.674;2023-11-19T05:55:54;100169.16;;;12.88
18713;BMP280;9485;49.386;8.674;2023-11-19T06:01:17;100160.13;;;12.89
18713;BMP280;9485;49.386;8.674;2023-11-19T06:06:38;100153.44;;;12.92
18713;BMP280;9485;49.386;8.674;2023-11-19T06:12:00;100154.72;;;12.97
18713;BMP280;9485;49.386;8.674;2023-11-19T06:17:22;100152.38;;;13.01
18713;BMP280;9485;49.386;8.674;2023-11-19T06:22:43;100166.56;;;13.06
18713;BMP280;9485;49.386;8.674;2023-11-19T06:28:05;100180.19;;;13.13
18713;BMP280;9485;49.386;8.674;2023-11-19T06:33:27;100172.97;;;13.18
18713;BMP280;9485;49.386;8.674;2023-11-19T06:38:47;100169.59;;;13.19
18713;BMP280;9485;49.386;8.674;2023-11-19T06:44:08;100182.97;;;13.30
18713;BMP280;9485;49.386;8.674;2023-11-19T06:49:30;100174.47;;;13.30
18713;BMP280;9485;49.386;8.674;2023-11-19T06:54:50;100178.09;;;13.19
18713;BMP280;9485;49.386;8.674;2023-11-19T07:00:12;100202.34;;;13.20
18713;BMP280;9485;49.386;8.674;2023-11-19T07:05:36;100219.84;;;13.30
18713;BMP280;9485;49.386;8.674;2023-11-19T07:10:57;100214.66;;;13.39
18713;BMP280;9485;49.386;8.674;2023-11-19T07:16:18;100214.91;;;13.47
18713;BMP280;9485;49.386;8.674;2023-11-19T07:21:43;100217.19;;;13.53
18713;BMP280;9485;49.386;8.674;2023-11-19T07:27:04;100214.09;;;13.57
18713;BMP280;9485;49.386;8.674;2023-11-19T07:32:26;100210.94;;;13.66
18713;BMP280;9485;49.386;8.674;2023-11-19T07:37:47;100226.91;;;13.74
18713;BMP280;9485;49.386;8.674;2023-11-19T07:43:09;100237.72;;;13.81
18713;BMP280;9485;49.386;8.674;2023-11-19T07:48:29;100242.13;;;13.71
18713;BMP280;9485;49.386;8.674;2023-11-19T07:53:52;100232.13;;;13.54
18713;BMP280;9485;49.386;8.674;2023-11-19T07:59:13;100230.38;;;13.40
18713;BMP280;9485;49.386;8.674;2023-11-19T08:04:33;100229.34;;;13.43
18713;BMP280;9485;49.386;8.674;2023-11-19T08:09:55;100231.91;;;13.41
18713;BMP280;9485;49.386;8.674;2023-11-19T08:15:16;100230.38;;;13.35
18713;BMP280;9485;49.386;8.674;2023-11-19T08:20:36;100238.63;;;13.38
18713;BMP280;9485;49.386;8.674;2023-11-19T08:26:00;100252.03;;;13.38
18713;BMP280;9485;49.386;8.674;2023-11-19T08:31:21;100251.50;;;13.45
18713;BMP280;9485;49.386;8.674;2023-11-19T08:36:42;100239.91;;;13.48
18713;BMP280;9485;49.386;8.674;2023-11-19T08:42:04;100249.53;;;13.91
18713;BMP280;9485;49.386;8.674;2023-11-19T08:47:25;100250.34;;;14.37
18713;BMP280;9485;49.386;8.674;2023-11-19T08:52:46;100247.19;;;15.34
18713;BMP280;9485;49.386;8.674;2023-11-19T08:58:08;100252.22;;;17.25
18713;BMP280;9485;49.386;8.674;2023-11-19T09:03:31;100257.38;;;17.13
18713;BMP280;9485;49.386;8.674;2023-11-19T09:08:52;100250.88;;;16.68
18713;BMP280;9485;49.386;8.674;2023-11-19T09:14:19;100277.72;;;15.81
18713;BMP280;9485;49.386;8.674;2023-11-19T09:19:43;100259.91;;;15.33
18713;BMP280;9485;49.386;8.674;2023-11-19T09:25:06;100259.03;;;15.08
18713;BMP280;9485;49.386;8.674;2023-11-19T09:30:28;100267.53;;;15.43
18713;BMP280;9485;49.386;8.674;2023-11-19T09:35:48;100268.97;;;15.55
18713;BMP280;9485;49.386;8.674;2023-11-19T09:41:11;100276.91;;;16.23
18713;BMP280;9485;49.386;8.674;2023-11-19T09:46:34;100262.38;;;17.51
18713;BMP280;9485;49.386;8.674;2023-11-19T09:51:56;100262.66;;;16.78
18713;BMP280;9485;49.386;8.674;2023-11-19T09:57:18;100264.06;;;16.16
18713;BMP280;9485;49.386;8.674;2023-11-19T10:02:40;100258.06;;;15.77
18713;BMP280;9485;49.386;8.674;2023-11-19T10:08:03;100265.91;;;15.72
18713;BMP280;9485;49.386;8.674;2023-11-19T10:13:26;100263.09;;;15.90
18713;BMP280;9485;49.386;8.674;2023-11-19T10:18:49;100274.19;;;16.85
18713;BMP280;9485;49.386;8.674;2023-11-19T10:24:10;100263.03;;;17.44
18713;BMP280;9485;49.386;8.674;2023-11-19T10:29:31;100256.59;;;17.57
18713;BMP280;9485;49.386;8.674;2023-11-19T10:35:05;100237.00;;;17.74
18713;BMP280;9485;49.386;8.674;2023-11-19T10:40:38;100242.63;;;17.79
18713;BMP280;9485;49.386;8.674;2023-11-19T10:46:10;100229.41;;;18.02
18713;BMP280;9485;49.386;8.674;2023-11-19T10:51:32;100220.59;;;18.13
18713;BMP280;9485;49.386;8.674;2023-11-19T10:56:58;100226.13;;;18.11
18713;BMP280;9485;49.386;8.674;2023-11-19T11:02:24;100209.72;;;18.11
18713;BMP280;9485;49.386;8.674;2023-11-19T11:07:51;100210.09;;;17.95
18713;BMP280;9485;49.386;8.674;2023-11-19T11:13:14;100222.53;;;17.72
18713;BMP280;9485;49.386;8.674;2023-11-19T11:18:34;100201.56;;;17.43
18713;BMP280;9485;49.386;8.674;2023-11-19T11:24:37;100221.72;;;17.20
18713;BMP280;9485;49.386;8.674;2023-11-19T11:30:15;100209.59;;;17.01
18713;BMP280;9485;49.386;8.674;2023-11-19T11:35:51;100214.44;;;16.93
18713;BMP280;9485;49.386;8.674;2023-11-19T11:41:20;100201.03;;;17.01
18713;BMP280;9485;49.386;8.674;2023-11-19T11:46:54;100180.66;;;17.23
18713;BMP280;9485;49.386;8.674;2023-11-19T11:52:15;100168.81;;;17.70
18713;BMP280;9485;49.386;8.674;2023-11-19T11:57:38;100165.28;;;17.90
18713;BMP280;9485;49.386;8.674;2023-11-19T12:03:02;100179.41;;;17.96
18713;BMP280;9485;49.386;8.674;2023-11-19T12:08:29;100177.38;;;17.83
18713;BMP280;9485;49.386;8.674;2023-11-19T12:13:56;100178.66;;;17.95
18713;BMP280;9485;49.386;8.674;2023-11-19T12:19:19;100173.22;;;18.17
18713;BMP280;9485;49.386;8.674;2023-11-19T12:24:40;100161.06;;;18.37
18713;BMP280;9485;49.386;8.674;2023-11-19T12:30:04;100170.16;;;18.69
18713;BMP280;9485;49.386;8.674;2023-11-19T12:35:25;100175.81;;;18.82
18713;BMP280;9485;49.386;8.674;2023-11-19T12:40:46;100157.84;;;19.02
18713;BMP280;9485;49.386;8.674;2023-11-19T12:46:19;100158.34;;;19.13
18713;BMP280;9485;49.386;8.674;2023-11-19T12:51:40;100148.59;;;19.09
18713;BMP280;9485;49.386;8.674;2023-11-19T12:57:01;100149.97;;;18.95
18713;BMP280;9485;49.386;8.674;2023-11-19T13:02:45;100133.25;;;18.79
18713;BMP280;9485;49.386;8.674;2023-11-19T13:08:08;100130.34;;;18.51
18713;BMP280;9485;49.386;8.674;2023-11-19T13:13:31;100132.63;;;18.32
18713;BMP280;9485;49.386;8.674;2023-11-19T13:18:54;100136.06;;;18.17
18713;BMP280;9485;49.386;8.674;2023-11-19T13:24:14;100134.97;;;17.87
18713;BMP280;9485;49.386;8.674;2023-11-19T13:29:35;100136.34;;;17.60
18713;BMP280;9485;49.386;8.674;2023-11-19T13:34:57;100124.28;;;17.41
18713;BMP280;9485;49.386;8.674;2023-11-19T13:40:18;100124.72;;;17.20
18713;BMP280;9485;49.386;8.674;2023-11-19T13:45:39;100129.84;;;16.95
18713;BMP280;9485;49.386;8.674;2023-11-19T13:51:01;100127.66;;;16.88
18713;BMP280;9485;49.386;8.674;2023-11-19T13:56:21;100105.50;;;16.81
18713;BMP280;9485;49.386;8.674;2023-11-19T14:01:42;100112.50;;;16.80
18713;BMP280;9485;49.386;8.674;2023-11-19T14:07:04;100094.09;;;16.81
18713;BMP280;9485;49.386;8.674;2023-11-19T14:12:24;100096.81;;;16.74
18713;BMP280;9485;49.386;8.674;2023-11-19T14:17:45;100106.34;;;16.76
18713;BMP280;9485;49.386;8.674;2023-11-19T14:23:07;100103.16;;;16.80
18713;BMP280;9485;49.386;8.674;2023-11-19T14:28:28;100114.38;;;16.91
18713;BMP280;9485;49.386;8.674;2023-11-19T14:33:50;100103.53;;;17.02
18713;BMP280;9485;49.386;8.674;2023-11-19T14:39:12;100110.97;;;17.05
18713;BMP280;9485;49.386;8.674;2023-11-19T14:44:33;100113.72;;;16.98
18713;BMP280;9485;49.386;8.674;2023-11-19T14:49:53;100103.88;;;16.99
18713;BMP280;9485;49.386;8.674;2023-11-19T14:55:16;100108.13;;;16.92
18713;BMP280;9485;49.386;8.674;2023-11-19T15:00:36;100116.34;;;16.83
18713;BMP280;9485;49.386;8.674;2023-11-19T15:05:57;100124.53;;;16.60
18713;BMP280;9485;49.386;8.674;2023-11-19T15:11:19;100119.91;;;16.57
18713;BMP280;9485;49.386;8.674;2023-11-19T15:16:40;100120.44;;;16.43
18713;BMP280;9485;49.386;8.674;2023-11-19T15:22:02;100129.00;;;16.25
18713;BMP280;9485;49.386;8.674;2023-11-19T15:27:26;100131.13;;;16.06
18713;BMP280;9485;49.386;8.674;2023-11-19T15:32:47;100129.97;;;15.96
18713;BMP280;9485;49.386;8.674;2023-11-19T15:38:08;100133.66;;;15.91
18713;BMP280;9485;49.386;8.674;2023-11-19T15:43:30;100126.50;;;15.84
18713;BMP280;9485;49.386;8.674;2023-11-19T15:48:51;100133.81;;;15.80
18713;BMP280;9485;49.386;8.674;2023-11-19T15:54:12;100143.13;;;15.62
18713;BMP280;9485;49.386;8.674;2023-11-19T15:59:34;100149.78;;;15.46
18713;BMP280;9485;49.386;8.674;2023-11-19T16:04:54;100145.84;;;15.31
18713;BMP280;9485;49.386;8.674;2023-11-19T16:10:15;100135.53;;;15.28
18713;BMP280;9485;49.386;8.674;2023-11-19T16:15:40;100145.84;;;15.31
18713;BMP280;9485;49.386;8.674;2023-11-19T16:21:00;100143.34;;;15.22
18713;BMP280;9485;49.386;8.674;2023-11-19T16:26:21;100143.09;;;15.20
18713;BMP280;9485;49.386;8.674;2023-11-19T16:31:43;100158.16;;;15.15
18713;BMP280;9485;49.386;8.674;2023-11-19T16:37:04;100157.25;;;15.01
18713;BMP280;9485;49.386;8.674;2023-11-19T16:42:25;100170.75;;;14.96
18713;BMP280;9485;49.386;8.674;2023-11-19T16:47:47;100181.19;;;14.88
18713;BMP280;9485;49.386;8.674;2023-11-19T16:53:09;100180.25;;;14.80
18713;BMP280;9485;49.386;8.674;2023-11-19T16:58:31;100172.53;;;14.75
18713;BMP280;9485;49.386;8.674;2023-11-19T17:03:53;100176.19;;;14.70
18713;BMP280;9485;49.386;8.674;2023-11-19T17:09:14;100172.88;;;14.66
18713;BMP280;9485;49.386;8.674;2023-11-19T17:14:35;100192.78;;;14.66
18713;BMP280;9485;49.386;8.674;2023-11-19T17:19:57;100190.22;;;14.62
18713;BMP280;9485;49.386;8.674;2023-11-19T17:25:18;100216.88;;;14.54
18713;BMP280;9485;49.386;8.674;2023-11-19T17:30:39;100225.50;;;14.43
18713;BMP280;9485;49.386;8.674;2023-11-19T17:36:03;100216.03;;;14.29
18713;BMP280;9485;49.386;8.674;2023-11-19T17:41:25;100208.88;;;14.18
18713;BMP280;9485;49.386;8.674;2023-11-19T17:46:47;100221.56;;;14.11
18713;BMP280;9485;49.386;8.674;2023-11-19T17:52:09;100234.72;;;14.09
18713;BMP280;9485;49.386;8.674;2023-11-19T17:57:30;100248.97;;;14.03
18713;BMP280;9485;49.386;8.674;2023-11-19T18:02:50;100235.25;;;14.02
18713;BMP280;9485;49.386;8.674;2023-11-19T18:08:13;100235.25;;;14.07
18713;BMP280;9485;49.386;8.674;2023-11-19T18:13:33;100242.72;;;14.16
18713;BMP280;9485;49.386;8.674;2023-11-19T18:18:54;100232.34;;;14.18
18713;BMP280;9485;49.386;8.674;2023-11-19T18:24:16;100239.63;;;14.08
18713;BMP280;9485;49.386;8.674;2023-11-19T18:29:36;100247.91;;;14.01
18713;BMP280;9485;49.386;8.674;2023-11-19T18:34:57;100257.31;;;13.79
18713;BMP280;9485;49.386;8.674;2023-11-19T18:40:19;100262.75;;;13.77
18713;BMP280;9485;49.386;8.674;2023-11-19T18:45:40;100270.47;;;13.82
18713;BMP280;9485;49.386;8.674;2023-11-19T18:51:01;100276.91;;;13.77
18713;BMP280;9485;49.386;8.674;2023-11-19T18:56:23;100281.31;;;13.78
18713;BMP280;9485;49.386;8.674;2023-11-19T19:01:44;100269.97;;;13.78
18713;BMP280;9485;49.386;8.674;2023-11-19T19:07:04;100279.47;;;13.86
18713;BMP280;9485;49.386;8.674;2023-11-19T19:12:28;100283.84;;;13.93
18713;BMP280;9485;49.386;8.674;2023-11-19T19:17:49;100285.88;;;13.98
18713;BMP280;9485;49.386;8.674;2023-11-19T19:23:10;100281.22;;;14.00
18713;BMP280;9485;49.386;8.674;2023-11-19T19:28:32;100282.03;;;13.95
18713;BMP280;9485;49.386;8.674;2023-11-19T19:33:56;100293.34;;;14.01
18713;BMP280;9485;49.386;8.674;2023-11-19T19:39:17;100279.66;;;14.05
18713;BMP280;9485;49.386;8.674;2023-11-19T19:44:39;100298.50;;;14.02
18713;BMP280;9485;49.386;8.674;2023-11-19T19:50:00;100292.03;;;14.07
18713;BMP280;9485;49.386;8.674;2023-11-19T19:55:21;100270.06;;;14.08
18713;BMP280;9485;49.386;8.674;2023-11-19T20:00:43;100260.31;;;14.03
18713;BMP280;9485;49.386;8.674;2023-11-19T20:06:05;100267.22;;;14.08
18713;BMP280;9485;49.386;8.674;2023-11-19T20:11:30;100267.00;;;14.11
18713;BMP280;9485;49.386;8.674;2023-11-19T20:16:54;100274.22;;;14.12
18713;BMP280;9485;49.386;8.674;2023-11-19T20:22:15;100276.28;;;14.17
18713;BMP280;9485;49.386;8.674;2023-11-19T20:27:35;100282.91;;;14.25
18713;BMP280;9485;49.386;8.674;2023-11-19T20:32:58;100271.81;;;14.27
18713;BMP280;9485;49.386;8.674;2023-11-19T20:38:19;100270.25;;;14.31
18713;BMP280;9485;49.386;8.674;2023-11-19T20:43:39;100286.75;;;14.33
18713;BMP280;9485;49.386;8.674;2023-11-19T20:49:01;100300.69;;;14.36
18713;BMP280;9485;49.386;8.674;2023-11-19T20:54:22;100297.56;;;14.40
18713;BMP280;9485;49.386;8.674;2023-11-19T20:59:43;100302.44;;;14.45
18713;BMP280;9485;49.386;8.674;2023-11-19T21:05:06;100305.53;;;14.47
18713;BMP280;9485;49.386;8.674;2023-11-19T21:10:28;100308.63;;;14.49
18713;BMP280;9485;49.386;8.674;2023-11-19T21:15:49;100309.91;;;14.48
18713;BMP280;9485;49.386;8.674;2023-11-19T21:21:11;100298.00;;;14.49
18713;BMP280;9485;49.386;8.674;2023-11-19T21:26:32;100299.63;;;14.45
18713;BMP280;9485;49.386;8.674;2023-11-19T21:31:52;100296.50;;;14.48
18713;BMP280;9485;49.386;8.674;2023-11-19T21:37:14;100293.38;;;14.52
18713;BMP280;9485;49.386;8.674;2023-11-19T21:42:35;100296.97;;;14.52
18713;BMP280;9485;49.386;8.674;2023-11-19T21:47:55;100296.22;;;14.52
18713;BMP280;9485;49.386;8.674;2023-11-19T21:53:18;100294.13;;;14.52
18713;BMP280;9485;49.386;8.674;2023-11-19T21:58:39;100283.56;;;14.47
18713;BMP280;9485;49.386;8.674;2023-11-19T22:03:59;100289.22;;;14.53
18713;BMP280;9485;49.386;8.674;2023-11-19T22:09:21;100292.03;;;14.53
18713;BMP280;9485;49.386;8.674;2023-11-19T22:14:43;100288.19;;;14.50
18713;BMP280;9485;49.386;8.674;2023-11-19T22:20:06;100278.91;;;14.50
18713;BMP280;9485;49.386;8.674;2023-11-19T22:25:29;100288.19;;;14.50
18713;BMP280;9485;49.386;8.674;2023-11-19T22:30:50;100290.28;;;14.50
18713;BMP280;9485;49.386;8.674;2023-11-19T22:36:12;100282.31;;;14.43
18713;BMP280;9485;49.386;8.674;2023-11-19T22:41:34;100281.56;;;14.37
18713;BMP280;9485;49.386;8.674;2023-11-19T22:46:55;100274.09;;;14.34
18713;BMP280;9485;49.386;8.674;2023-11-19T22:52:15;100281.59;;;14.31
18713;BMP280;9485;49.386;8.674;2023-11-19T22:57:37;100274.66;;;14.27
18713;BMP280;9485;49.386;8.674;2023-11-19T23:02:58;100262.81;;;14.23
18713;BMP280;9485;49.386;8.674;2023-11-19T23:08:22;100263.84;;;14.20
18713;BMP280;9485;49.386;8.674;2023-11-19T23:13:44;100256.91;;;14.16
18713;BMP280;9485;49.386;8.674;2023-11-19T23:19:05;100256.69;;;14.14
18713;BMP280;9485;49.386;8.674;2023-11-19T23:24:27;100259.50;;;14.14
18713;BMP280;9485;49.386;8.674;2023-11-19T23:29:49;100253.06;;;14.13
18713;BMP280;9485;49.386;8.674;2023-11-19T23:35:09;100248.16;;;14.14
18713;BMP280;9485;49.386;8.674;2023-11-19T23:40:30;100236.00;;;14.13
18713;BMP280;9485;49.386;8.674;2023-11-19T23:45:53;100240.69;;;14.11
18713;BMP280;9485;49.386;8.674;2023-11-19T23:51:13;100237.31;;;14.07
18713;BMP280;9485;49.386;8.674;2023-11-19T23:56:34;100236.28;;;14.04
